sensor_id;sensor_type;location;lat;lon;timestamp;P1;durP1;ratioP1;P2;durP2;ratioP2
55069;SDS011;40967;52.070;8.596;2023-03-01T00:01:59;4.15;;;2.05;;
55069;SDS011;40967;52.070;8.596;2023-03-01T00:04:24;3.42;;;1.85;;
55069;SDS011;40967;52.070;8.596;2023-03-01T00:06:50;4.70;;;2.00;;
55069;SDS011;40967;52.070;8.596;2023-03-01T00:09:16;4.97;;;2.30;;
55069;SDS011;40967;52.070;8.596;2023-03-01T00:11:42;5.70;;;2.53;;
55069;SDS011;40967;52.070;8.596;2023-03-01T00:14:07;4.05;;;2.05;;
55069;SDS011;40967;52.070;8.596;2023-03-01T00:16:34;5.40;;;2.60;;
55069;SDS011;40967;52.070;8.596;2023-03-01T00:19:04;5.32;;;2.72;;
55069;SDS011;40967;52.070;8.596;2023-03-01T00:21:29;4.95;;;2.45;;
55069;SDS011;40967;52.070;8.596;2023-03-01T00:23:55;5.40;;;2.47;;
55069;SDS011;40967;52.070;8.596;2023-03-01T00:26:22;5.15;;;2.53;;
55069;SDS011;40967;52.070;8.596;2023-03-01T00:28:48;4.97;;;2.40;;
55069;SDS011;40967;52.070;8.596;2023-03-01T00:31:17;5.05;;;2.42;;
55069;SDS011;40967;52.070;8.596;2023-03-01T00:33:45;5.22;;;2.30;;
55069;SDS011;40967;52.070;8.596;2023-03-01T00:36:11;4.73;;;2.30;;
55069;SDS011;40967;52.070;8.596;2023-03-01T00:38:39;5.00;;;2.40;;
55069;SDS011;40967;52.070;8.596;2023-03-01T00:41:08;5.82;;;2.42;;
55069;SDS011;40967;52.070;8.596;2023-03-01T00:43:34;4.50;;;2.13;;
55069;SDS011;40967;52.070;8.596;2023-03-01T00:46:04;5.15;;;2.35;;
55069;SDS011;40967;52.070;8.596;2023-03-01T00:48:32;4.93;;;2.20;;
55069;SDS011;40967;52.070;8.596;2023-03-01T00:51:03;4.20;;;2.10;;
55069;SDS011;40967;52.070;8.596;2023-03-01T00:53:31;5.05;;;2.58;;
55069;SDS011;40967;52.070;8.596;2023-03-01T00:55:57;4.57;;;2.13;;
55069;SDS011;40967;52.070;8.596;2023-03-01T00:58:24;4.00;;;1.90;;
55069;SDS011;40967;52.070;8.596;2023-03-01T01:00:49;3.73;;;1.80;;
55069;SDS011;40967;52.070;8.596;2023-03-01T01:03:15;4.43;;;2.03;;
55069;SDS011;40967;52.070;8.596;2023-03-01T01:05:40;4.70;;;2.00;;
55069;SDS011;40967;52.070;8.596;2023-03-01T01:08:05;5.53;;;2.20;;
55069;SDS011;40967;52.070;8.596;2023-03-01T01:10:33;4.60;;;1.90;;
55069;SDS011;40967;52.070;8.596;2023-03-01T01:12:59;3.80;;;2.00;;
55069;SDS011;40967;52.070;8.596;2023-03-01T01:15:25;4.20;;;1.90;;
55069;SDS011;40967;52.070;8.596;2023-03-01T01:17:51;3.80;;;1.70;;
55069;SDS011;40967;52.070;8.596;2023-03-01T01:20:16;5.00;;;2.10;;
55069;SDS011;40967;52.070;8.596;2023-03-01T01:22:42;4.57;;;2.10;;
55069;SDS011;40967;52.070;8.596;2023-03-01T01:25:08;4.93;;;2.00;;
55069;SDS011;40967;52.070;8.596;2023-03-01T01:27:33;5.03;;;2.22;;
55069;SDS011;40967;52.070;8.596;2023-03-01T01:29:59;4.05;;;1.90;;
55069;SDS011;40967;52.070;8.596;2023-03-01T01:32:24;4.60;;;2.10;;
55069;SDS011;40967;52.070;8.596;2023-03-01T01:34:50;4.60;;;2.27;;
55069;SDS011;40967;52.070;8.596;2023-03-01T01:37:15;4.30;;;2.03;;
55069;SDS011;40967;52.070;8.596;2023-03-01T01:39:41;5.70;;;2.20;;
55069;SDS011;40967;52.070;8.596;2023-03-01T01:42:08;4.97;;;2.40;;
55069;SDS011;40967;52.070;8.596;2023-03-01T01:44:42;4.75;;;2.13;;
55069;SDS011;40967;52.070;8.596;2023-03-01T01:47:12;4.95;;;2.20;;
55069;SDS011;40967;52.070;8.596;2023-03-01T01:49:52;4.13;;;2.03;;
55069;SDS011;40967;52.070;8.596;2023-03-01T01:52:22;5.43;;;2.27;;
55069;SDS011;40967;52.070;8.596;2023-03-01T01:55:00;4.72;;;2.15;;
55069;SDS011;40967;52.070;8.596;2023-03-01T01:58:13;5.20;;;2.40;;
55069;SDS011;40967;52.070;8.596;2023-03-01T02:00:25;4.95;;;2.20;;
55069;SDS011;40967;52.070;8.596;2023-03-01T02:02:56;5.57;;;2.15;;
55069;SDS011;40967;52.070;8.596;2023-03-01T02:05:26;4.97;;;2.40;;
55069;SDS011;40967;52.070;8.596;2023-03-01T02:08:02;5.28;;;2.30;;
55069;SDS011;40967;52.070;8.596;2023-03-01T02:10:28;4.95;;;2.33;;
55069;SDS011;40967;52.070;8.596;2023-03-01T02:12:58;4.95;;;2.30;;
55069;SDS011;40967;52.070;8.596;2023-03-01T02:15:24;4.82;;;2.35;;
55069;SDS011;40967;52.070;8.596;2023-03-01T02:17:52;5.05;;;2.40;;
55069;SDS011;40967;52.070;8.596;2023-03-01T02:22:49;5.05;;;2.40;;
55069;SDS011;40967;52.070;8.596;2023-03-01T02:27:58;4.35;;;2.20;;
55069;SDS011;40967;52.070;8.596;2023-03-01T02:30:44;4.55;;;2.05;;
55069;SDS011;40967;52.070;8.596;2023-03-01T02:33:31;5.15;;;2.40;;
55069;SDS011;40967;52.070;8.596;2023-03-01T02:36:02;4.73;;;2.30;;
55069;SDS011;40967;52.070;8.596;2023-03-01T02:38:31;4.43;;;2.10;;
55069;SDS011;40967;52.070;8.596;2023-03-01T02:40:57;4.50;;;2.20;;
55069;SDS011;40967;52.070;8.596;2023-03-01T02:43:26;5.32;;;2.30;;
55069;SDS011;40967;52.070;8.596;2023-03-01T02:45:56;5.20;;;2.30;;
55069;SDS011;40967;52.070;8.596;2023-03-01T02:48:23;5.15;;;2.30;;
55069;SDS011;40967;52.070;8.596;2023-03-01T02:51:05;4.85;;;2.42;;
55069;SDS011;40967;52.070;8.596;2023-03-01T02:53:55;6.40;;;2.42;;
55069;SDS011;40967;52.070;8.596;2023-03-01T02:56:26;5.80;;;2.60;;
55069;SDS011;40967;52.070;8.596;2023-03-01T02:58:53;4.85;;;2.33;;
55069;SDS011;40967;52.070;8.596;2023-03-01T03:01:18;4.97;;;2.60;;
55069;SDS011;40967;52.070;8.596;2023-03-01T03:03:47;4.95;;;2.38;;
55069;SDS011;40967;52.070;8.596;2023-03-01T03:06:12;5.90;;;2.40;;
55069;SDS011;40967;52.070;8.596;2023-03-01T03:08:38;5.00;;;2.43;;
55069;SDS011;40967;52.070;8.596;2023-03-01T03:11:04;5.35;;;2.20;;
55069;SDS011;40967;52.070;8.596;2023-03-01T03:13:29;5.63;;;2.40;;
55069;SDS011;40967;52.070;8.596;2023-03-01T03:15:55;4.80;;;2.50;;
55069;SDS011;40967;52.070;8.596;2023-03-01T03:18:23;5.47;;;2.47;;
55069;SDS011;40967;52.070;8.596;2023-03-01T03:20:51;5.45;;;2.50;;
55069;SDS011;40967;52.070;8.596;2023-03-01T03:23:19;5.03;;;2.53;;
55069;SDS011;40967;52.070;8.596;2023-03-01T03:25:48;5.70;;;2.58;;
55069;SDS011;40967;52.070;8.596;2023-03-01T03:28:14;5.10;;;2.47;;
55069;SDS011;40967;52.070;8.596;2023-03-01T03:30:41;5.33;;;2.50;;
55069;SDS011;40967;52.070;8.596;2023-03-01T03:33:08;3.88;;;2.03;;
55069;SDS011;40967;52.070;8.596;2023-03-01T03:35:37;4.25;;;2.13;;
55069;SDS011;40967;52.070;8.596;2023-03-01T03:38:06;4.25;;;2.42;;
55069;SDS011;40967;52.070;8.596;2023-03-01T03:40:40;5.97;;;2.45;;
55069;SDS011;40967;52.070;8.596;2023-03-01T03:43:09;4.70;;;2.30;;
55069;SDS011;40967;52.070;8.596;2023-03-01T03:45:37;5.95;;;2.65;;
55069;SDS011;40967;52.070;8.596;2023-03-01T03:48:03;5.57;;;2.67;;
55069;SDS011;40967;52.070;8.596;2023-03-01T03:50:30;4.65;;;2.17;;
55069;SDS011;40967;52.070;8.596;2023-03-01T03:52:56;4.63;;;2.50;;
55069;SDS011;40967;52.070;8.596;2023-03-01T03:55:21;5.30;;;2.53;;
55069;SDS011;40967;52.070;8.596;2023-03-01T03:57:47;5.57;;;2.67;;
55069;SDS011;40967;52.070;8.596;2023-03-01T04:00:17;5.60;;;2.33;;
55069;SDS011;40967;52.070;8.596;2023-03-01T04:02:44;5.93;;;3.00;;
55069;SDS011;40967;52.070;8.596;2023-03-01T04:05:11;6.47;;;2.80;;
55069;SDS011;40967;52.070;8.596;2023-03-01T04:07:39;6.28;;;2.85;;
55069;SDS011;40967;52.070;8.596;2023-03-01T04:10:08;4.25;;;2.28;;
55069;SDS011;40967;52.070;8.596;2023-03-01T04:12:35;5.10;;;2.42;;
55069;SDS011;40967;52.070;8.596;2023-03-01T04:15:01;5.67;;;2.60;;
55069;SDS011;40967;52.070;8.596;2023-03-01T04:17:44;5.22;;;2.63;;
55069;SDS011;40967;52.070;8.596;2023-03-01T04:20:12;5.55;;;2.65;;
55069;SDS011;40967;52.070;8.596;2023-03-01T04:22:42;5.35;;;2.63;;
55069;SDS011;40967;52.070;8.596;2023-03-01T04:25:12;5.32;;;2.55;;
55069;SDS011;40967;52.070;8.596;2023-03-01T04:27:39;5.32;;;2.47;;
55069;SDS011;40967;52.070;8.596;2023-03-01T04:30:06;4.80;;;2.60;;
55069;SDS011;40967;52.070;8.596;2023-03-01T04:32:32;5.20;;;2.80;;
55069;SDS011;40967;52.070;8.596;2023-03-01T04:34:57;5.70;;;2.67;;
55069;SDS011;40967;52.070;8.596;2023-03-01T04:37:22;4.80;;;2.50;;
55069;SDS011;40967;52.070;8.596;2023-03-01T04:39:49;5.03;;;2.50;;
55069;SDS011;40967;52.070;8.596;2023-03-01T04:42:14;6.53;;;2.80;;
55069;SDS011;40967;52.070;8.596;2023-03-01T04:44:41;6.00;;;3.17;;
55069;SDS011;40967;52.070;8.596;2023-03-01T04:47:07;7.50;;;3.72;;
55069;SDS011;40967;52.070;8.596;2023-03-01T04:49:33;6.43;;;3.83;;
55069;SDS011;40967;52.070;8.596;2023-03-01T04:51:58;6.80;;;4.07;;
55069;SDS011;40967;52.070;8.596;2023-03-01T04:54:27;6.93;;;3.40;;
55069;SDS011;40967;52.070;8.596;2023-03-01T04:56:55;6.13;;;3.20;;
55069;SDS011;40967;52.070;8.596;2023-03-01T04:59:20;5.72;;;3.38;;
55069;SDS011;40967;52.070;8.596;2023-03-01T05:01:49;6.00;;;3.28;;
55069;SDS011;40967;52.070;8.596;2023-03-01T05:04:15;7.35;;;3.40;;
55069;SDS011;40967;52.070;8.596;2023-03-01T05:06:40;6.03;;;3.30;;
55069;SDS011;40967;52.070;8.596;2023-03-01T05:09:06;6.97;;;3.65;;
55069;SDS011;40967;52.070;8.596;2023-03-01T05:11:32;8.73;;;4.37;;
55069;SDS011;40967;52.070;8.596;2023-03-01T05:14:01;8.00;;;4.32;;
55069;SDS011;40967;52.070;8.596;2023-03-01T05:16:27;10.45;;;5.25;;
55069;SDS011;40967;52.070;8.596;2023-03-01T05:18:52;12.43;;;6.00;;
55069;SDS011;40967;52.070;8.596;2023-03-01T05:21:20;11.35;;;5.63;;
55069;SDS011;40967;52.070;8.596;2023-03-01T05:23:46;10.77;;;5.30;;
55069;SDS011;40967;52.070;8.596;2023-03-01T05:26:12;11.18;;;5.65;;
55069;SDS011;40967;52.070;8.596;2023-03-01T05:28:38;10.75;;;5.75;;
55069;SDS011;40967;52.070;8.596;2023-03-01T05:31:04;11.50;;;5.75;;
55069;SDS011;40967;52.070;8.596;2023-03-01T05:33:34;11.37;;;6.00;;
55069;SDS011;40967;52.070;8.596;2023-03-01T05:36:06;11.27;;;5.33;;
55069;SDS011;40967;52.070;8.596;2023-03-01T05:38:36;12.02;;;6.13;;
55069;SDS011;40967;52.070;8.596;2023-03-01T05:41:01;12.23;;;6.33;;
55069;SDS011;40967;52.070;8.596;2023-03-01T05:43:29;11.82;;;6.03;;
55069;SDS011;40967;52.070;8.596;2023-03-01T05:45:58;11.63;;;5.57;;
55069;SDS011;40967;52.070;8.596;2023-03-01T05:48:24;10.82;;;5.68;;
55069;SDS011;40967;52.070;8.596;2023-03-01T05:50:50;11.32;;;5.43;;
55069;SDS011;40967;52.070;8.596;2023-03-01T05:53:17;10.25;;;5.30;;
55069;SDS011;40967;52.070;8.596;2023-03-01T05:55:47;11.23;;;6.05;;
55069;SDS011;40967;52.070;8.596;2023-03-01T05:58:16;13.40;;;7.20;;
55069;SDS011;40967;52.070;8.596;2023-03-01T06:00:43;12.60;;;6.85;;
55069;SDS011;40967;52.070;8.596;2023-03-01T06:03:10;10.95;;;6.13;;
55069;SDS011;40967;52.070;8.596;2023-03-01T06:05:37;11.10;;;6.10;;
55069;SDS011;40967;52.070;8.596;2023-03-01T06:08:03;11.27;;;5.90;;
55069;SDS011;40967;52.070;8.596;2023-03-01T06:10:29;11.80;;;5.93;;
55069;SDS011;40967;52.070;8.596;2023-03-01T06:12:54;10.27;;;5.33;;
55069;SDS011;40967;52.070;8.596;2023-03-01T06:15:21;8.90;;;4.70;;
55069;SDS011;40967;52.070;8.596;2023-03-01T06:17:46;8.27;;;4.43;;
55069;SDS011;40967;52.070;8.596;2023-03-01T06:20:13;7.33;;;4.20;;
55069;SDS011;40967;52.070;8.596;2023-03-01T06:22:41;8.55;;;4.32;;
55069;SDS011;40967;52.070;8.596;2023-03-01T06:25:07;9.07;;;4.97;;
55069;SDS011;40967;52.070;8.596;2023-03-01T06:27:34;9.52;;;4.90;;
55069;SDS011;40967;52.070;8.596;2023-03-01T06:29:59;9.07;;;5.13;;
55069;SDS011;40967;52.070;8.596;2023-03-01T06:32:28;8.93;;;4.75;;
55069;SDS011;40967;52.070;8.596;2023-03-01T06:34:56;9.37;;;5.43;;
55069;SDS011;40967;52.070;8.596;2023-03-01T06:37:23;8.07;;;3.97;;
55069;SDS011;40967;52.070;8.596;2023-03-01T06:39:49;7.33;;;4.00;;
55069;SDS011;40967;52.070;8.596;2023-03-01T06:42:15;8.53;;;4.77;;
55069;SDS011;40967;52.070;8.596;2023-03-01T06:44:40;9.57;;;4.87;;
55069;SDS011;40967;52.070;8.596;2023-03-01T06:47:05;8.07;;;4.33;;
55069;SDS011;40967;52.070;8.596;2023-03-01T06:49:31;10.17;;;5.00;;
55069;SDS011;40967;52.070;8.596;2023-03-01T06:51:57;8.93;;;4.33;;
55069;SDS011;40967;52.070;8.596;2023-03-01T06:54:22;7.53;;;4.23;;
55069;SDS011;40967;52.070;8.596;2023-03-01T06:56:48;8.30;;;4.47;;
55069;SDS011;40967;52.070;8.596;2023-03-01T06:59:15;10.00;;;5.00;;
55069;SDS011;40967;52.070;8.596;2023-03-01T07:01:41;9.33;;;4.60;;
55069;SDS011;40967;52.070;8.596;2023-03-01T07:04:07;8.73;;;4.80;;
55069;SDS011;40967;52.070;8.596;2023-03-01T07:06:34;8.87;;;4.47;;
55069;SDS011;40967;52.070;8.596;2023-03-01T07:09:00;8.20;;;4.50;;
55069;SDS011;40967;52.070;8.596;2023-03-01T07:11:25;9.60;;;4.60;;
55069;SDS011;40967;52.070;8.596;2023-03-01T07:13:51;9.13;;;4.30;;
55069;SDS011;40967;52.070;8.596;2023-03-01T07:16:16;8.20;;;4.20;;
55069;SDS011;40967;52.070;8.596;2023-03-01T07:18:42;7.28;;;3.70;;
55069;SDS011;40967;52.070;8.596;2023-03-01T07:21:08;7.43;;;3.80;;
55069;SDS011;40967;52.070;8.596;2023-03-01T07:23:36;6.63;;;3.20;;
55069;SDS011;40967;52.070;8.596;2023-03-01T07:26:01;6.30;;;3.30;;
55069;SDS011;40967;52.070;8.596;2023-03-01T07:28:27;5.82;;;3.08;;
55069;SDS011;40967;52.070;8.596;2023-03-01T07:30:52;6.03;;;3.10;;
55069;SDS011;40967;52.070;8.596;2023-03-01T07:33:21;5.60;;;2.95;;
55069;SDS011;40967;52.070;8.596;2023-03-01T07:35:55;5.43;;;3.05;;
55069;SDS011;40967;52.070;8.596;2023-03-01T07:38:22;6.40;;;3.03;;
55069;SDS011;40967;52.070;8.596;2023-03-01T07:40:48;5.90;;;2.90;;
55069;SDS011;40967;52.070;8.596;2023-03-01T07:43:13;6.17;;;2.93;;
55069;SDS011;40967;52.070;8.596;2023-03-01T07:45:39;6.03;;;3.23;;
55069;SDS011;40967;52.070;8.596;2023-03-01T07:48:04;6.15;;;3.00;;
55069;SDS011;40967;52.070;8.596;2023-03-01T07:50:32;6.47;;;3.28;;
55069;SDS011;40967;52.070;8.596;2023-03-01T07:53:08;5.72;;;3.13;;
55069;SDS011;40967;52.070;8.596;2023-03-01T07:55:36;5.50;;;2.70;;
55069;SDS011;40967;52.070;8.596;2023-03-01T07:58:03;5.70;;;2.85;;
55069;SDS011;40967;52.070;8.596;2023-03-01T08:00:29;5.68;;;3.00;;
55069;SDS011;40967;52.070;8.596;2023-03-01T08:03:00;5.10;;;2.60;;
55069;SDS011;40967;52.070;8.596;2023-03-01T08:05:26;5.40;;;2.83;;
55069;SDS011;40967;52.070;8.596;2023-03-01T08:07:52;4.97;;;2.83;;
55069;SDS011;40967;52.070;8.596;2023-03-01T08:10:18;6.40;;;3.10;;
55069;SDS011;40967;52.070;8.596;2023-03-01T08:12:44;5.67;;;3.03;;
55069;SDS011;40967;52.070;8.596;2023-03-01T08:15:09;6.47;;;3.25;;
55069;SDS011;40967;52.070;8.596;2023-03-01T08:17:35;5.72;;;3.40;;
55069;SDS011;40967;52.070;8.596;2023-03-01T08:20:01;5.50;;;3.10;;
55069;SDS011;40967;52.070;8.596;2023-03-01T08:22:28;6.18;;;2.85;;
55069;SDS011;40967;52.070;8.596;2023-03-01T08:24:53;6.33;;;3.20;;
55069;SDS011;40967;52.070;8.596;2023-03-01T08:27:20;6.43;;;3.38;;
55069;SDS011;40967;52.070;8.596;2023-03-01T08:29:46;6.30;;;3.33;;
55069;SDS011;40967;52.070;8.596;2023-03-01T08:32:11;6.80;;;3.33;;
55069;SDS011;40967;52.070;8.596;2023-03-01T08:34:37;5.50;;;3.10;;
55069;SDS011;40967;52.070;8.596;2023-03-01T08:37:02;6.20;;;3.30;;
55069;SDS011;40967;52.070;8.596;2023-03-01T08:39:28;5.90;;;2.90;;
55069;SDS011;40967;52.070;8.596;2023-03-01T08:41:53;5.37;;;2.97;;
55069;SDS011;40967;52.070;8.596;2023-03-01T08:44:19;5.53;;;2.80;;
55069;SDS011;40967;52.070;8.596;2023-03-01T08:46:46;6.60;;;3.20;;
55069;SDS011;40967;52.070;8.596;2023-03-01T08:49:13;5.63;;;2.80;;
55069;SDS011;40967;52.070;8.596;2023-03-01T08:51:40;5.90;;;3.20;;
55069;SDS011;40967;52.070;8.596;2023-03-01T08:54:06;5.78;;;3.30;;
55069;SDS011;40967;52.070;8.596;2023-03-01T08:56:36;5.30;;;3.20;;
55069;SDS011;40967;52.070;8.596;2023-03-01T08:59:01;5.50;;;3.10;;
55069;SDS011;40967;52.070;8.596;2023-03-01T09:01:27;6.77;;;3.40;;
55069;SDS011;40967;52.070;8.596;2023-03-01T09:03:52;6.20;;;3.40;;
55069;SDS011;40967;52.070;8.596;2023-03-01T09:06:18;6.72;;;3.22;;
55069;SDS011;40967;52.070;8.596;2023-03-01T09:08:45;8.03;;;4.03;;
55069;SDS011;40967;52.070;8.596;2023-03-01T09:11:12;6.82;;;3.60;;
55069;SDS011;40967;52.070;8.596;2023-03-01T09:13:40;6.72;;;3.13;;
55069;SDS011;40967;52.070;8.596;2023-03-01T09:16:06;6.70;;;3.47;;
55069;SDS011;40967;52.070;8.596;2023-03-01T09:18:33;7.65;;;4.15;;
55069;SDS011;40967;52.070;8.596;2023-03-01T09:23:33;6.80;;;3.85;;
55069;SDS011;40967;52.070;8.596;2023-03-01T09:26:01;5.88;;;3.22;;
55069;SDS011;40967;52.070;8.596;2023-03-01T09:28:27;6.05;;;3.28;;
55069;SDS011;40967;52.070;8.596;2023-03-01T09:31:02;7.50;;;3.93;;
55069;SDS011;40967;52.070;8.596;2023-03-01T09:33:29;7.15;;;3.88;;
55069;SDS011;40967;52.070;8.596;2023-03-01T09:35:56;6.50;;;3.80;;
55069;SDS011;40967;52.070;8.596;2023-03-01T09:38:26;6.70;;;4.00;;
55069;SDS011;40967;52.070;8.596;2023-03-01T09:40:51;7.27;;;4.23;;
55069;SDS011;40967;52.070;8.596;2023-03-01T09:45:55;7.18;;;4.30;;
55069;SDS011;40967;52.070;8.596;2023-03-01T09:48:28;8.60;;;4.47;;
55069;SDS011;40967;52.070;8.596;2023-03-01T09:50:58;6.97;;;4.22;;
55069;SDS011;40967;52.070;8.596;2023-03-01T09:53:31;6.47;;;3.63;;
55069;SDS011;40967;52.070;8.596;2023-03-01T09:59:23;7.70;;;3.95;;
55069;SDS011;40967;52.070;8.596;2023-03-01T10:04:46;8.25;;;4.53;;
55069;SDS011;40967;52.070;8.596;2023-03-01T10:10:07;6.53;;;3.85;;
55069;SDS011;40967;52.070;8.596;2023-03-01T10:12:41;7.67;;;4.17;;
55069;SDS011;40967;52.070;8.596;2023-03-01T10:15:19;6.80;;;3.80;;
55069;SDS011;40967;52.070;8.596;2023-03-01T10:17:57;6.45;;;3.50;;
55069;SDS011;40967;52.070;8.596;2023-03-01T10:20:26;6.43;;;3.78;;
55069;SDS011;40967;52.070;8.596;2023-03-01T10:22:58;7.65;;;3.80;;
55069;SDS011;40967;52.070;8.596;2023-03-01T10:28:28;6.78;;;3.72;;
55069;SDS011;40967;52.070;8.596;2023-03-01T10:31:13;7.18;;;3.72;;
55069;SDS011;40967;52.070;8.596;2023-03-01T10:33:43;6.35;;;3.30;;
55069;SDS011;40967;52.070;8.596;2023-03-01T10:36:08;5.83;;;2.97;;
55069;SDS011;40967;52.070;8.596;2023-03-01T10:38:47;6.47;;;3.10;;
55069;SDS011;40967;52.070;8.596;2023-03-01T10:41:19;5.65;;;2.92;;
55069;SDS011;40967;52.070;8.596;2023-03-01T10:43:49;5.82;;;3.10;;
55069;SDS011;40967;52.070;8.596;2023-03-01T10:51:45;6.60;;;3.60;;
55069;SDS011;40967;52.070;8.596;2023-03-01T10:54:31;6.25;;;3.17;;
55069;SDS011;40967;52.070;8.596;2023-03-01T10:57:04;5.93;;;3.08;;
55069;SDS011;40967;52.070;8.596;2023-03-01T11:07:24;7.15;;;3.20;;
55069;SDS011;40967;52.070;8.596;2023-03-01T11:09:50;5.43;;;2.60;;
55069;SDS011;40967;52.070;8.596;2023-03-01T11:12:16;5.97;;;3.03;;
55069;SDS011;40967;52.070;8.596;2023-03-01T11:14:46;6.00;;;2.67;;
55069;SDS011;40967;52.070;8.596;2023-03-01T11:22:30;5.68;;;3.03;;
55069;SDS011;40967;52.070;8.596;2023-03-01T11:24:57;6.05;;;3.22;;
55069;SDS011;40967;52.070;8.596;2023-03-01T11:27:33;5.63;;;2.70;;
55069;SDS011;40967;52.070;8.596;2023-03-01T11:30:07;4.30;;;2.20;;
55069;SDS011;40967;52.070;8.596;2023-03-01T11:33:08;3.50;;;1.77;;
55069;SDS011;40967;52.070;8.596;2023-03-01T11:36:05;5.60;;;2.50;;
55069;SDS011;40967;52.070;8.596;2023-03-01T11:42:15;5.85;;;2.90;;
55069;SDS011;40967;52.070;8.596;2023-03-01T11:44:55;4.88;;;2.53;;
55069;SDS011;40967;52.070;8.596;2023-03-01T11:50:16;5.55;;;2.88;;
55069;SDS011;40967;52.070;8.596;2023-03-01T11:55:29;6.18;;;2.45;;
55069;SDS011;40967;52.070;8.596;2023-03-01T12:06:47;4.90;;;2.20;;
55069;SDS011;40967;52.070;8.596;2023-03-01T12:12:16;4.90;;;2.38;;
55069;SDS011;40967;52.070;8.596;2023-03-01T12:18:02;5.75;;;2.67;;
55069;SDS011;40967;52.070;8.596;2023-03-01T12:29:34;6.45;;;2.90;;
55069;SDS011;40967;52.070;8.596;2023-03-01T12:32:22;5.68;;;2.92;;
55069;SDS011;40967;52.070;8.596;2023-03-01T12:35:09;5.60;;;2.80;;
55069;SDS011;40967;52.070;8.596;2023-03-01T12:38:41;6.80;;;3.00;;
55069;SDS011;40967;52.070;8.596;2023-03-01T12:41:08;5.40;;;2.50;;
55069;SDS011;40967;52.070;8.596;2023-03-01T12:43:58;4.25;;;2.40;;
55069;SDS011;40967;52.070;8.596;2023-03-01T12:46:52;5.67;;;2.50;;
55069;SDS011;40967;52.070;8.596;2023-03-01T12:49:28;5.70;;;2.75;;
55069;SDS011;40967;52.070;8.596;2023-03-01T12:54:30;5.40;;;2.53;;
55069;SDS011;40967;52.070;8.596;2023-03-01T12:56:59;4.88;;;2.53;;
55069;SDS011;40967;52.070;8.596;2023-03-01T12:59:48;5.40;;;2.50;;
55069;SDS011;40967;52.070;8.596;2023-03-01T13:02:29;5.45;;;2.60;;
55069;SDS011;40967;52.070;8.596;2023-03-01T13:11:11;4.63;;;2.30;;
55069;SDS011;40967;52.070;8.596;2023-03-01T13:13:43;5.00;;;2.30;;
55069;SDS011;40967;52.070;8.596;2023-03-01T13:19:07;5.25;;;2.75;;
55069;SDS011;40967;52.070;8.596;2023-03-01T13:21:37;4.95;;;2.50;;
55069;SDS011;40967;52.070;8.596;2023-03-01T13:24:02;4.80;;;2.40;;
55069;SDS011;40967;52.070;8.596;2023-03-01T13:26:29;4.88;;;2.30;;
55069;SDS011;40967;52.070;8.596;2023-03-01T13:28:55;4.60;;;2.50;;
55069;SDS011;40967;52.070;8.596;2023-03-01T13:33:51;5.33;;;2.80;;
55069;SDS011;40967;52.070;8.596;2023-03-01T13:44:29;5.27;;;2.23;;
55069;SDS011;40967;52.070;8.596;2023-03-01T13:49:41;4.10;;;2.00;;
55069;SDS011;40967;52.070;8.596;2023-03-01T13:55:16;5.05;;;2.17;;
55069;SDS011;40967;52.070;8.596;2023-03-01T13:57:46;4.50;;;2.40;;
55069;SDS011;40967;52.070;8.596;2023-03-01T14:03:15;5.07;;;2.00;;
55069;SDS011;40967;52.070;8.596;2023-03-01T14:05:44;4.05;;;1.85;;
55069;SDS011;40967;52.070;8.596;2023-03-01T14:08:24;4.30;;;2.05;;
55069;SDS011;40967;52.070;8.596;2023-03-01T14:10:58;3.67;;;1.55;;
55069;SDS011;40967;52.070;8.596;2023-03-01T14:13:52;3.90;;;1.80;;
55069;SDS011;40967;52.070;8.596;2023-03-01T14:16:23;5.28;;;2.50;;
55069;SDS011;40967;52.070;8.596;2023-03-01T14:19:18;4.32;;;1.90;;
55069;SDS011;40967;52.070;8.596;2023-03-01T14:21:49;3.45;;;1.83;;
55069;SDS011;40967;52.070;8.596;2023-03-01T14:24:27;4.82;;;2.55;;
55069;SDS011;40967;52.070;8.596;2023-03-01T14:26:52;4.27;;;2.00;;
55069;SDS011;40967;52.070;8.596;2023-03-01T14:29:29;4.53;;;1.85;;
55069;SDS011;40967;52.070;8.596;2023-03-01T14:32:19;5.70;;;1.70;;
55069;SDS011;40967;52.070;8.596;2023-03-01T14:34:52;4.25;;;1.65;;
55069;SDS011;40967;52.070;8.596;2023-03-01T14:37:28;3.70;;;1.83;;
55069;SDS011;40967;52.070;8.596;2023-03-01T14:39:56;4.13;;;2.17;;
55069;SDS011;40967;52.070;8.596;2023-03-01T14:42:23;3.30;;;1.48;;
55069;SDS011;40967;52.070;8.596;2023-03-01T14:44:56;3.33;;;1.73;;
55069;SDS011;40967;52.070;8.596;2023-03-01T14:47:32;3.63;;;1.80;;
55069;SDS011;40967;52.070;8.596;2023-03-01T14:50:01;4.78;;;2.13;;
55069;SDS011;40967;52.070;8.596;2023-03-01T14:52:36;6.20;;;1.83;;
55069;SDS011;40967;52.070;8.596;2023-03-01T14:55:05;3.55;;;1.55;;
55069;SDS011;40967;52.070;8.596;2023-03-01T14:57:42;3.60;;;1.60;;
55069;SDS011;40967;52.070;8.596;2023-03-01T15:00:10;3.43;;;1.60;;
55069;SDS011;40967;52.070;8.596;2023-03-01T15:02:42;3.38;;;1.50;;
55069;SDS011;40967;52.070;8.596;2023-03-01T15:05:08;4.20;;;2.13;;
55069;SDS011;40967;52.070;8.596;2023-03-01T15:07:36;3.95;;;1.73;;
55069;SDS011;40967;52.070;8.596;2023-03-01T15:10:06;3.97;;;2.10;;
55069;SDS011;40967;52.070;8.596;2023-03-01T15:12:42;4.30;;;2.20;;
55069;SDS011;40967;52.070;8.596;2023-03-01T15:17:57;5.05;;;2.13;;
55069;SDS011;40967;52.070;8.596;2023-03-01T15:20:26;4.18;;;1.65;;
55069;SDS011;40967;52.070;8.596;2023-03-01T15:22:54;4.17;;;1.67;;
55069;SDS011;40967;52.070;8.596;2023-03-01T15:25:27;3.53;;;1.83;;
55069;SDS011;40967;52.070;8.596;2023-03-01T15:27:55;4.47;;;2.05;;
55069;SDS011;40967;52.070;8.596;2023-03-01T15:35:44;3.75;;;1.80;;
55069;SDS011;40967;52.070;8.596;2023-03-01T15:40:54;3.88;;;1.85;;
55069;SDS011;40967;52.070;8.596;2023-03-01T15:46:21;3.17;;;1.53;;
55069;SDS011;40967;52.070;8.596;2023-03-01T15:48:55;3.47;;;1.67;;
55069;SDS011;40967;52.070;8.596;2023-03-01T15:51:43;4.33;;;1.77;;
55069;SDS011;40967;52.070;8.596;2023-03-01T15:54:18;4.40;;;1.77;;
55069;SDS011;40967;52.070;8.596;2023-03-01T15:56:46;3.37;;;1.73;;
55069;SDS011;40967;52.070;8.596;2023-03-01T15:59:12;3.47;;;1.65;;
55069;SDS011;40967;52.070;8.596;2023-03-01T16:01:39;2.83;;;1.38;;
55069;SDS011;40967;52.070;8.596;2023-03-01T16:04:05;3.38;;;1.48;;
55069;SDS011;40967;52.070;8.596;2023-03-01T16:06:30;3.10;;;1.48;;
55069;SDS011;40967;52.070;8.596;2023-03-01T16:08:56;3.50;;;1.60;;
55069;SDS011;40967;52.070;8.596;2023-03-01T16:11:21;4.68;;;1.70;;
55069;SDS011;40967;52.070;8.596;2023-03-01T16:13:47;4.20;;;1.90;;
55069;SDS011;40967;52.070;8.596;2023-03-01T16:16:14;3.33;;;1.60;;
55069;SDS011;40967;52.070;8.596;2023-03-01T16:18:42;3.60;;;1.67;;
55069;SDS011;40967;52.070;8.596;2023-03-01T16:21:27;3.95;;;1.77;;
55069;SDS011;40967;52.070;8.596;2023-03-01T16:23:53;3.42;;;1.80;;
55069;SDS011;40967;52.070;8.596;2023-03-01T16:26:18;4.32;;;1.90;;
55069;SDS011;40967;52.070;8.596;2023-03-01T16:28:44;3.47;;;1.60;;
55069;SDS011;40967;52.070;8.596;2023-03-01T16:31:10;3.40;;;1.40;;
55069;SDS011;40967;52.070;8.596;2023-03-01T16:33:36;4.07;;;1.73;;
55069;SDS011;40967;52.070;8.596;2023-03-01T16:36:06;4.13;;;2.00;;
55069;SDS011;40967;52.070;8.596;2023-03-01T16:38:34;4.82;;;1.80;;
55069;SDS011;40967;52.070;8.596;2023-03-01T16:40:59;3.60;;;1.70;;
55069;SDS011;40967;52.070;8.596;2023-03-01T16:43:25;3.35;;;1.35;;
55069;SDS011;40967;52.070;8.596;2023-03-01T16:45:51;3.58;;;1.48;;
55069;SDS011;40967;52.070;8.596;2023-03-01T16:48:16;2.90;;;1.30;;
55069;SDS011;40967;52.070;8.596;2023-03-01T16:50:42;2.35;;;0.98;;
55069;SDS011;40967;52.070;8.596;2023-03-01T16:53:08;2.57;;;1.20;;
55069;SDS011;40967;52.070;8.596;2023-03-01T16:55:33;3.03;;;1.48;;
55069;SDS011;40967;52.070;8.596;2023-03-01T16:57:59;2.83;;;1.30;;